createdAt,value
2022-09-18T00:00:17.929Z,0.90
2022-09-18T00:01:59.665Z,0.60
2022-09-18T00:03:42.537Z,0.22
2022-09-18T00:05:24.458Z,0.47
2022-09-18T00:07:06.360Z,0.40
2022-09-18T00:08:50.278Z,0.25
2022-09-18T00:10:32.095Z,0.30
2022-09-18T00:12:13.997Z,0.55
2022-09-18T00:13:57.121Z,0.73
2022-09-18T00:15:39.264Z,0.88
2022-09-18T00:19:02.621Z,0.20
2022-09-18T00:20:44.420Z,0.32
2022-09-18T00:22:26.133Z,0.40
2022-09-18T00:24:07.968Z,0.60
2022-09-18T00:25:49.762Z,0.35
2022-09-18T00:27:31.653Z,0.30
2022-09-18T00:29:16.012Z,0.75
2022-09-18T00:31:04.183Z,0.22
2022-09-18T00:32:45.968Z,0.38
2022-09-18T00:34:27.990Z,0.50
2022-09-18T00:37:52.522Z,0.28
2022-09-18T00:41:18.445Z,0.38
2022-09-18T00:43:21.561Z,0.20
2022-09-18T00:45:05.414Z,0.20
2022-09-18T00:46:47.352Z,0.40
2022-09-18T00:48:37.711Z,1.30
2022-09-18T00:50:21.914Z,1.05
2022-09-18T00:52:04.539Z,0.43
2022-09-18T00:54:01.257Z,0.35
2022-09-18T00:55:43.179Z,0.50
2022-09-18T00:57:29.816Z,0.40
2022-09-18T00:59:14.869Z,0.20
2022-09-18T01:00:57.975Z,0.30
2022-09-18T01:02:40.437Z,0.35
2022-09-18T01:04:22.469Z,0.20
2022-09-18T01:06:11.688Z,0.30
2022-09-18T01:08:02.628Z,0.80
2022-09-18T01:09:55.325Z,0.43
2022-09-18T01:11:44.979Z,0.30
2022-09-18T01:13:35.461Z,0.45
2022-09-18T01:15:25.066Z,0.28
2022-09-18T01:17:17.323Z,0.40
2022-09-18T01:19:06.791Z,0.20
2022-09-18T01:20:58.867Z,0.30
2022-09-18T01:22:58.987Z,0.40
2022-09-18T01:24:49.198Z,0.20
2022-09-18T01:26:49.930Z,0.40
2022-09-18T01:28:38.869Z,0.28
2022-09-18T01:30:20.660Z,0.30
2022-09-18T01:32:08.494Z,0.20
2022-09-18T01:33:52.711Z,0.10
2022-09-18T01:35:41.938Z,0.17
2022-09-18T01:37:31.025Z,0.65
2022-09-18T01:39:16.715Z,0.28
2022-09-18T01:41:03.286Z,0.35
2022-09-18T01:42:48.215Z,0.20
2022-09-18T01:44:33.650Z,0.30
2022-09-18T01:46:18.333Z,0.30
2022-09-18T01:48:02.808Z,0.25
2022-09-18T01:49:47.310Z,0.30
2022-09-18T01:51:35.881Z,0.22
2022-09-18T01:53:21.139Z,0.20
2022-09-18T01:55:05.210Z,0.30
2022-09-18T01:56:52.470Z,0.10
2022-09-18T01:58:35.164Z,0.10
2022-09-18T02:00:19.279Z,0.10
2022-09-18T02:02:04.570Z,0.10
2022-09-18T02:03:49.422Z,0.10
2022-09-18T02:05:35.180Z,0.20
2022-09-18T02:07:24.009Z,0.25
2022-09-18T02:09:08.010Z,0.20
2022-09-18T02:10:55.230Z,0.10
2022-09-18T02:12:39.991Z,0.20
2022-09-18T02:14:27.138Z,0.13
2022-09-18T02:16:14.765Z,0.25
2022-09-18T02:17:59.156Z,0.17
2022-09-18T02:19:45.719Z,0.22
2022-09-18T02:21:30.530Z,0.10
2022-09-18T02:23:12.819Z,0.20
2022-09-18T02:24:56.958Z,0.20
2022-09-18T02:26:40.254Z,0.10
2022-09-18T02:28:23.907Z,0.20
2022-09-18T02:30:07.846Z,0.13
2022-09-18T02:31:51.478Z,0.20
2022-09-18T02:33:35.016Z,0.20
2022-09-18T02:35:16.759Z,0.13
2022-09-18T02:37:17.083Z,0.10
2022-09-18T02:39:12.919Z,0.10
2022-09-18T02:40:59.977Z,0.20
2022-09-18T02:42:44.992Z,0.10
2022-09-18T02:44:37.297Z,0.20
2022-09-18T02:46:29.967Z,0.10
2022-09-18T02:48:31.203Z,0.10
2022-09-18T02:50:18.850Z,0.00
2022-09-18T02:52:06.445Z,0.00
2022-09-18T02:53:54.268Z,0.28
2022-09-18T02:55:44.369Z,0.30
2022-09-18T02:57:32.294Z,0.00
2022-09-18T02:59:18.301Z,0.20
2022-09-18T03:01:04.456Z,0.15
2022-09-18T03:02:46.603Z,0.10
2022-09-18T03:04:29.924Z,0.03
2022-09-18T03:06:11.695Z,0.10
2022-09-18T03:07:53.681Z,0.05
2022-09-18T03:11:17.055Z,0.10
2022-09-18T03:12:58.862Z,0.08
2022-09-18T03:14:40.804Z,0.00
2022-09-18T03:16:22.608Z,0.10
2022-09-18T03:18:04.455Z,0.00
2022-09-18T03:19:47.549Z,0.00
2022-09-18T03:21:29.296Z,0.10
2022-09-18T03:23:11.026Z,0.00
2022-09-18T03:24:52.799Z,0.00
2022-09-18T03:26:34.559Z,0.00
2022-09-18T03:28:16.538Z,0.00
2022-09-18T03:31:40.183Z,0.10
2022-09-18T03:33:21.932Z,0.00
2022-09-18T03:35:05.782Z,0.10
2022-09-18T03:36:47.520Z,0.00
2022-09-18T03:38:29.263Z,0.08
2022-09-18T03:40:11.364Z,0.10
2022-09-18T03:43:35.921Z,0.10
2022-09-18T03:45:17.774Z,0.00
2022-09-18T03:46:59.609Z,0.38
2022-09-18T03:48:41.547Z,0.00
2022-09-18T03:50:24.741Z,0.10
2022-09-18T03:52:06.660Z,0.00
2022-09-18T03:53:49.116Z,0.00
2022-09-18T03:55:30.854Z,0.20
2022-09-18T03:57:12.606Z,0.13
2022-09-18T03:58:54.406Z,0.00
2022-09-18T04:00:36.242Z,0.75
2022-09-18T04:02:18.047Z,0.03
2022-09-18T04:03:59.814Z,0.03
2022-09-18T04:05:42.890Z,0.40
2022-09-18T04:07:24.673Z,0.00
2022-09-18T04:09:06.562Z,0.00
2022-09-18T04:10:48.399Z,0.10
2022-09-18T04:12:30.150Z,0.03
2022-09-18T04:14:11.867Z,0.10
2022-09-18T04:15:53.618Z,0.00
2022-09-18T04:17:35.502Z,0.10
2022-09-18T04:19:17.320Z,0.00
2022-09-18T04:21:00.406Z,0.00
2022-09-18T04:22:43.155Z,0.00
2022-09-18T04:24:24.901Z,0.03
2022-09-18T04:26:06.745Z,0.20
2022-09-18T04:27:48.552Z,0.10
2022-09-18T04:29:30.279Z,0.05
2022-09-18T04:31:12.070Z,0.10
2022-09-18T04:32:53.915Z,0.10
2022-09-18T04:34:35.642Z,0.00
2022-09-18T04:36:18.744Z,0.00
2022-09-18T04:38:00.780Z,0.00
2022-09-18T04:39:42.518Z,0.00
2022-09-18T04:41:24.383Z,0.00
2022-09-18T04:43:06.547Z,0.03
2022-09-18T04:44:48.264Z,0.00
2022-09-18T04:46:30.445Z,0.00
2022-09-18T04:48:12.230Z,0.00
2022-09-18T04:49:53.978Z,0.10
2022-09-18T04:51:37.078Z,0.05
2022-09-18T04:53:19.701Z,0.10
2022-09-18T04:55:02.303Z,0.10
2022-09-18T04:56:44.074Z,0.00
2022-09-18T04:58:25.818Z,0.00
2022-09-18T05:00:08.748Z,0.10
2022-09-18T05:01:50.593Z,0.00
2022-09-18T05:03:32.429Z,0.03
2022-09-18T05:05:14.350Z,0.00
2022-09-18T05:06:57.411Z,0.00
2022-09-18T05:08:39.189Z,0.10
2022-09-18T05:10:20.926Z,0.00
2022-09-18T05:12:03.101Z,0.10
2022-09-18T05:13:48.229Z,0.00
2022-09-18T05:15:29.989Z,0.00
2022-09-18T05:17:11.730Z,0.00
2022-09-18T05:18:53.852Z,0.00
2022-09-18T05:22:18.531Z,0.00
2022-09-18T05:24:00.418Z,0.00
2022-09-18T05:25:42.860Z,0.00
2022-09-18T05:27:26.888Z,0.00
2022-09-18T05:29:08.964Z,0.00
2022-09-18T05:30:50.701Z,0.10
2022-09-18T05:32:32.454Z,0.00
2022-09-18T05:34:14.227Z,0.00
2022-09-18T05:35:57.239Z,0.00
2022-09-18T05:37:40.317Z,0.00
2022-09-18T05:39:22.122Z,0.00
2022-09-18T05:41:04.379Z,0.00
2022-09-18T05:42:46.723Z,0.10
2022-09-18T05:44:28.583Z,0.10
2022-09-18T05:46:10.368Z,0.00
2022-09-18T05:47:56.802Z,0.00
2022-09-18T05:49:38.562Z,0.00
2022-09-18T05:51:20.356Z,0.10
2022-09-18T05:53:05.198Z,0.10
2022-09-18T05:54:47.074Z,0.10
2022-09-18T05:56:28.807Z,0.10
2022-09-18T05:58:13.505Z,0.00
2022-09-18T05:59:55.259Z,0.00
2022-09-18T06:01:37.035Z,0.08
2022-09-18T06:03:18.926Z,0.00
2022-09-18T06:05:00.742Z,0.00
2022-09-18T06:06:42.485Z,0.10
2022-09-18T06:08:25.561Z,0.10
2022-09-18T06:10:07.947Z,0.00
2022-09-18T06:11:49.685Z,0.00
2022-09-18T06:13:31.574Z,0.03
2022-09-18T06:15:13.934Z,0.00
2022-09-18T06:16:55.662Z,0.05
2022-09-18T06:18:37.390Z,0.00
2022-09-18T06:20:19.165Z,0.00
2022-09-18T06:22:00.906Z,0.00
2022-09-18T06:23:43.971Z,0.00
2022-09-18T06:25:25.756Z,0.00
2022-09-18T06:27:07.491Z,0.00
2022-09-18T06:28:49.210Z,0.30
2022-09-18T06:30:33.560Z,0.10
2022-09-18T06:32:15.402Z,0.00
2022-09-18T06:33:57.363Z,0.00
2022-09-18T06:35:39.127Z,0.00
2022-09-18T06:37:21.045Z,0.00
2022-09-18T06:39:04.302Z,0.13
2022-09-18T06:40:49.791Z,0.03
2022-09-18T06:42:31.528Z,0.00
2022-09-18T06:44:13.258Z,0.13
2022-09-18T06:45:56.887Z,0.00
2022-09-18T06:47:38.739Z,0.10
2022-09-18T06:49:20.575Z,0.00
2022-09-18T06:51:02.350Z,0.10
2022-09-18T06:52:44.066Z,0.08
2022-09-18T06:54:27.162Z,0.05
2022-09-18T06:56:09.211Z,0.10
2022-09-18T06:59:35.862Z,0.10
2022-09-18T07:01:17.713Z,0.30
2022-09-18T07:03:01.025Z,0.10
2022-09-18T07:04:42.770Z,0.40
2022-09-18T07:06:24.658Z,0.10
2022-09-18T07:08:06.380Z,0.00
2022-09-18T07:09:49.450Z,0.15
2022-09-18T07:11:31.342Z,0.10
2022-09-18T07:13:13.073Z,0.10
2022-09-18T07:14:54.905Z,0.15
2022-09-18T07:16:36.741Z,0.10
2022-09-18T07:18:18.555Z,0.30
2022-09-18T07:20:00.383Z,0.25
2022-09-18T07:21:42.118Z,0.13
2022-09-18T07:23:24.037Z,0.20
2022-09-18T07:25:09.575Z,0.10
2022-09-18T07:26:51.358Z,0.13
2022-09-18T07:28:33.119Z,0.05
2022-09-18T07:30:15.261Z,0.03
2022-09-18T07:31:58.321Z,0.10
2022-09-18T07:33:40.283Z,0.05
2022-09-18T07:35:22.013Z,0.32
2022-09-18T07:37:03.774Z,0.20
2022-09-18T07:38:49.304Z,0.00
2022-09-18T07:40:33.261Z,0.25
2022-09-18T07:42:15.072Z,0.10
2022-09-18T07:43:56.905Z,0.00
2022-09-18T07:45:38.979Z,0.00
2022-09-18T07:49:02.871Z,0.10
2022-09-18T07:50:44.707Z,0.00
2022-09-18T07:52:26.495Z,0.08
2022-09-18T07:54:08.238Z,0.20
2022-09-18T07:55:51.322Z,0.00
2022-09-18T07:57:33.351Z,0.00
2022-09-18T07:59:15.078Z,0.15
2022-09-18T08:01:00.064Z,0.00
2022-09-18T08:02:41.941Z,0.10
2022-09-18T08:04:23.815Z,0.00
2022-09-18T08:06:06.106Z,0.03
2022-09-18T08:07:47.999Z,0.22
2022-09-18T08:09:30.209Z,0.00
2022-09-18T08:11:13.274Z,0.10
2022-09-18T08:12:55.069Z,0.00
2022-09-18T08:14:36.802Z,0.22
2022-09-18T08:16:18.714Z,0.10
2022-09-18T08:18:00.565Z,0.00
2022-09-18T08:19:42.300Z,0.03
2022-09-18T08:21:24.091Z,0.10
2022-09-18T08:23:07.157Z,0.00
2022-09-18T08:24:48.881Z,0.05
2022-09-18T08:26:32.107Z,0.00
2022-09-18T08:28:13.916Z,0.03
2022-09-18T08:29:55.659Z,0.08
2022-09-18T08:31:37.485Z,0.20
2022-09-18T08:33:19.250Z,0.00
2022-09-18T08:35:01.079Z,0.40
2022-09-18T08:36:42.818Z,0.00
2022-09-18T08:38:24.607Z,0.00
2022-09-18T08:40:07.184Z,0.10
2022-09-18T08:42:09.855Z,0.10
2022-09-18T08:45:48.931Z,0.15
2022-09-18T08:47:37.182Z,0.13
2022-09-18T08:49:28.131Z,0.10
2022-09-18T08:51:17.062Z,0.05
2022-09-18T08:53:02.857Z,0.00
2022-09-18T08:54:49.529Z,0.10
2022-09-18T08:56:32.578Z,0.05
2022-09-18T08:58:20.043Z,0.20
2022-09-18T09:00:04.846Z,0.10
2022-09-18T09:02:01.120Z,0.30
2022-09-18T09:03:54.617Z,0.00
2022-09-18T09:05:44.991Z,0.20
2022-09-18T09:07:52.957Z,0.10
2022-09-18T09:09:50.843Z,0.00
2022-09-18T09:11:45.438Z,0.00
2022-09-18T09:14:05.503Z,0.05
2022-09-18T09:15:53.462Z,0.10
2022-09-18T09:17:45.880Z,0.00
2022-09-18T09:23:02.779Z,0.03
2022-09-18T09:24:55.373Z,0.00
2022-09-18T09:26:37.981Z,0.15
2022-09-18T09:28:23.378Z,0.00
2022-09-18T09:30:13.295Z,0.00
2022-09-18T09:31:58.100Z,0.00
2022-09-18T09:33:52.632Z,0.10
2022-09-18T09:35:40.908Z,0.08
2022-09-18T09:37:31.710Z,0.00
2022-09-18T09:39:20.934Z,0.00
2022-09-18T09:41:12.653Z,0.10
2022-09-18T09:43:01.117Z,0.00
2022-09-18T09:44:48.736Z,0.10
2022-09-18T09:46:57.971Z,0.00
2022-09-18T09:48:46.696Z,0.00
2022-09-18T09:50:45.292Z,0.00
2022-09-18T09:52:28.202Z,0.10
2022-09-18T09:54:11.693Z,0.08
2022-09-18T09:56:00.344Z,0.00
2022-09-18T09:57:48.047Z,0.00
2022-09-18T09:59:35.299Z,0.00
2022-09-18T10:01:23.809Z,0.10
2022-09-18T10:03:33.635Z,0.10
2022-09-18T10:05:24.278Z,0.00
2022-09-18T10:07:15.167Z,0.03
2022-09-18T10:09:02.751Z,0.00
2022-09-18T10:10:50.624Z,0.00
2022-09-18T10:12:42.726Z,0.10
2022-09-18T10:14:28.230Z,0.00
2022-09-18T10:16:15.680Z,0.00
2022-09-18T10:18:00.377Z,0.00
2022-09-18T10:19:44.062Z,0.08
2022-09-18T10:21:28.731Z,0.08
2022-09-18T10:23:14.818Z,0.00
2022-09-18T10:25:01.644Z,0.10
2022-09-18T10:26:47.209Z,0.22
2022-09-18T10:28:29.338Z,0.30
2022-09-18T10:31:55.148Z,0.20
2022-09-18T10:33:40.097Z,0.30
2022-09-18T10:35:44.935Z,0.30
2022-09-18T10:37:38.561Z,0.20
2022-09-18T10:39:31.573Z,0.47
2022-09-18T10:41:26.223Z,0.40
2022-09-18T10:43:15.982Z,0.47
2022-09-18T10:45:02.015Z,0.30
2022-09-18T10:46:52.641Z,0.17
2022-09-18T10:48:34.462Z,0.35
2022-09-18T10:50:18.945Z,0.28
2022-09-18T10:52:26.638Z,0.60
2022-09-18T10:54:16.668Z,0.20
2022-09-18T10:56:04.366Z,0.28
2022-09-18T10:58:02.744Z,0.40
2022-09-18T10:59:44.502Z,0.20
2022-09-18T11:01:26.422Z,0.30
2022-09-18T11:03:34.556Z,0.38
2022-09-18T11:05:17.947Z,0.25
2022-09-18T11:06:59.929Z,0.30
2022-09-18T11:08:45.925Z,0.40
2022-09-18T11:10:30.053Z,0.20
2022-09-18T11:12:16.840Z,0.38
2022-09-18T11:14:01.187Z,0.20
2022-09-18T11:15:51.938Z,0.30
2022-09-18T11:17:40.516Z,0.28
2022-09-18T11:19:27.888Z,0.13
2022-09-18T11:21:09.655Z,0.30
2022-09-18T11:22:51.805Z,0.20
2022-09-18T11:24:37.518Z,0.40
2022-09-18T11:26:26.534Z,0.40
2022-09-18T11:28:21.930Z,0.65
2022-09-18T11:30:15.210Z,0.22
2022-09-18T11:32:01.364Z,0.17
2022-09-18T11:33:46.902Z,0.28
2022-09-18T11:35:30.006Z,0.22
2022-09-18T11:39:02.211Z,0.22
2022-09-18T11:40:50.189Z,0.20
2022-09-18T11:42:31.997Z,0.28
2022-09-18T11:44:18.841Z,0.43
2022-09-18T11:46:07.074Z,0.82
2022-09-18T11:47:54.413Z,0.30
2022-09-18T11:49:42.027Z,0.10
2022-09-18T11:51:26.934Z,0.15
2022-09-18T11:53:14.597Z,0.30
2022-09-18T11:55:00.230Z,0.20
2022-09-18T11:56:48.791Z,0.30
2022-09-18T11:58:34.968Z,0.20
2022-09-18T12:00:19.455Z,0.38
2022-09-18T12:02:11.952Z,0.35
2022-09-18T12:04:00.725Z,0.30
2022-09-18T12:05:49.886Z,0.50
2022-09-18T12:07:40.345Z,0.20
2022-09-18T12:09:30.663Z,0.10
2022-09-18T12:11:19.570Z,0.30
2022-09-18T12:13:20.386Z,0.40
2022-09-18T12:15:08.392Z,0.60
2022-09-18T12:17:00.277Z,1.25
2022-09-18T12:18:51.743Z,0.85
2022-09-18T12:20:38.823Z,0.47
2022-09-18T12:22:24.717Z,1.08
2022-09-18T12:24:12.508Z,0.63
2022-09-18T12:26:04.937Z,0.40
2022-09-18T12:29:49.975Z,0.40
2022-09-18T12:31:41.231Z,0.47
2022-09-18T12:33:34.323Z,0.35
2022-09-18T12:35:23.143Z,0.20
2022-09-18T12:37:14.206Z,0.38
2022-09-18T12:39:12.321Z,0.30
2022-09-18T12:41:15.710Z,0.40
2022-09-18T12:43:11.127Z,0.30
2022-09-18T12:45:27.522Z,0.35
2022-09-18T12:47:19.369Z,0.50
2022-09-18T12:49:28.346Z,0.40
2022-09-18T12:51:29.010Z,0.17
2022-09-18T12:53:22.172Z,0.20
2022-09-18T12:55:21.970Z,0.20
2022-09-18T12:57:17.594Z,0.50
2022-09-18T12:59:12.167Z,0.28
2022-09-18T13:00:58.881Z,0.73
2022-09-18T13:02:51.499Z,0.30
2022-09-18T13:04:38.383Z,0.28
2022-09-18T13:06:34.523Z,0.70
2022-09-18T13:08:21.427Z,0.38
2022-09-18T13:10:09.358Z,0.17
2022-09-18T13:11:54.596Z,0.20
2022-09-18T13:13:43.175Z,0.50
2022-09-18T13:15:27.645Z,0.20
2022-09-18T13:17:16.880Z,0.20
2022-09-18T13:19:02.965Z,0.40
2022-09-18T13:20:45.764Z,0.30
2022-09-18T13:22:33.595Z,0.38
2022-09-18T13:24:17.926Z,0.20
2022-09-18T13:26:01.490Z,0.45
2022-09-18T13:27:43.465Z,0.30
2022-09-18T13:29:47.910Z,0.20
2022-09-18T13:31:31.936Z,0.20
2022-09-18T13:33:24.758Z,0.20
2022-09-18T13:35:17.137Z,0.57
2022-09-18T13:38:48.753Z,0.30
2022-09-18T13:40:34.498Z,0.70
2022-09-18T13:42:28.742Z,0.30
2022-09-18T13:44:18.379Z,0.28
2022-09-18T13:46:06.632Z,0.47
2022-09-18T13:48:03.039Z,0.30
2022-09-18T13:49:52.097Z,0.10
2022-09-18T13:51:34.052Z,0.50
2022-09-18T13:53:31.193Z,0.50
2022-09-18T13:55:33.261Z,0.40
2022-09-18T13:57:20.335Z,0.25
2022-09-18T13:59:02.747Z,0.35
2022-09-18T14:00:44.543Z,0.40
2022-09-18T14:02:30.272Z,0.20
2022-09-18T14:04:45.427Z,0.20
2022-09-18T14:06:46.274Z,0.40
2022-09-18T14:08:38.217Z,0.30
2022-09-18T14:10:26.359Z,0.25
2022-09-18T14:12:12.209Z,0.50
2022-09-18T14:13:55.341Z,0.28
2022-09-18T14:15:37.308Z,0.30
2022-09-18T14:17:19.078Z,0.30
2022-09-18T14:19:04.224Z,0.38
2022-09-18T14:20:50.247Z,0.10
2022-09-18T14:22:33.659Z,0.60
2022-09-18T14:24:37.170Z,0.30
2022-09-18T14:26:57.396Z,0.60
2022-09-18T14:28:46.617Z,0.50
2022-09-18T14:30:30.418Z,0.32
2022-09-18T14:32:17.459Z,1.08
2022-09-18T14:34:03.629Z,0.50
2022-09-18T14:35:55.088Z,1.02
2022-09-18T14:37:38.267Z,0.17
2022-09-18T14:39:24.072Z,0.30
2022-09-18T14:41:14.263Z,0.20
2022-09-18T14:42:56.033Z,0.22
2022-09-18T14:44:38.554Z,0.30
2022-09-18T14:46:22.229Z,0.30
2022-09-18T14:48:20.561Z,0.95
2022-09-18T14:50:03.227Z,0.20
2022-09-18T14:52:03.159Z,0.40
2022-09-18T14:53:50.204Z,0.35
2022-09-18T14:55:36.126Z,0.40
2022-09-18T14:57:22.037Z,0.38
2022-09-18T14:59:06.552Z,0.25
2022-09-18T15:00:53.124Z,0.38
2022-09-18T15:02:36.468Z,0.40
2022-09-18T15:04:24.256Z,0.30
2022-09-18T15:06:09.807Z,0.30
2022-09-18T15:07:55.989Z,0.38
2022-09-18T15:09:40.110Z,0.55
2022-09-18T15:11:24.447Z,0.30
2022-09-18T15:13:09.230Z,0.52
2022-09-18T15:14:50.974Z,0.43
2022-09-18T15:16:33.432Z,0.40
2022-09-18T15:18:18.994Z,0.30
2022-09-18T15:20:09.486Z,0.20
2022-09-18T15:21:51.921Z,0.57
2022-09-18T15:23:35.275Z,0.38
2022-09-18T15:25:23.376Z,0.30
2022-09-18T15:27:05.580Z,0.35
2022-09-18T15:28:50.217Z,0.52
2022-09-18T15:30:39.936Z,0.30
2022-09-18T15:32:25.636Z,0.20
2022-09-18T15:34:14.666Z,0.30
2022-09-18T15:35:57.241Z,0.40
2022-09-18T15:37:39.159Z,0.20
2022-09-18T15:39:29.461Z,0.30
2022-09-18T15:41:29.154Z,0.20
2022-09-18T15:43:37.357Z,0.28
2022-09-18T15:45:22.310Z,0.40
2022-09-18T15:47:29.389Z,0.65
2022-09-18T15:49:27.505Z,0.30
2022-09-18T15:51:13.006Z,0.03
2022-09-18T15:53:04.258Z,0.70
2022-09-18T15:55:02.701Z,0.25
2022-09-18T15:56:51.940Z,0.35
2022-09-18T15:58:43.506Z,0.10
2022-09-18T16:00:27.244Z,0.25
2022-09-18T16:02:20.082Z,0.38
2022-09-18T16:04:08.583Z,0.20
2022-09-18T16:05:53.824Z,0.40
2022-09-18T16:07:35.853Z,0.20
2022-09-18T16:09:42.877Z,0.28
2022-09-18T16:11:44.722Z,0.15
2022-09-18T16:13:37.930Z,0.20
2022-09-18T16:15:21.581Z,0.20
2022-09-18T16:17:37.268Z,0.20
2022-09-18T16:19:19.033Z,0.30
2022-09-18T16:21:03.012Z,0.40
2022-09-18T16:22:44.953Z,0.28
2022-09-18T16:24:28.329Z,0.30
2022-09-18T16:26:12.307Z,0.35
2022-09-18T16:27:56.799Z,0.55
2022-09-18T16:29:40.077Z,0.20
2022-09-18T16:31:24.137Z,0.22
2022-09-18T16:33:15.989Z,0.20
2022-09-18T16:34:57.798Z,0.17
2022-09-18T16:36:42.477Z,0.47
2022-09-18T16:38:24.243Z,0.13
2022-09-18T16:40:13.066Z,0.47
2022-09-18T16:41:54.816Z,0.35
2022-09-18T16:43:36.560Z,0.30
2022-09-18T16:45:19.654Z,0.20
2022-09-18T16:47:05.537Z,0.30
2022-09-18T16:48:47.333Z,0.60
2022-09-18T16:50:29.095Z,0.30
2022-09-18T16:52:12.230Z,0.55
2022-09-18T16:53:53.970Z,0.30
2022-09-18T16:55:38.142Z,0.77
2022-09-18T16:57:21.004Z,0.50
2022-09-18T16:59:05.290Z,0.47
2022-09-18T17:00:48.470Z,0.55
2022-09-18T17:02:30.467Z,0.40
2022-09-18T17:04:12.251Z,0.40
2022-09-18T17:05:54.000Z,0.22
2022-09-18T17:07:35.768Z,0.60
2022-09-18T17:09:17.943Z,0.28
2022-09-18T17:12:41.581Z,0.25
2022-09-18T17:14:23.881Z,0.20
2022-09-18T17:16:07.607Z,0.35
2022-09-18T17:17:49.781Z,0.30
2022-09-18T17:19:32.920Z,0.10
2022-09-18T17:21:14.777Z,0.20
2022-09-18T17:22:56.517Z,0.10
2022-09-18T17:24:38.264Z,0.40
2022-09-18T17:26:20.044Z,0.85
2022-09-18T17:28:02.388Z,0.45
2022-09-18T17:29:44.339Z,1.05
2022-09-18T17:31:27.617Z,0.35
2022-09-18T17:33:09.817Z,0.20
2022-09-18T17:36:33.557Z,0.22
2022-09-18T17:39:57.459Z,0.30
2022-09-18T17:41:39.348Z,0.55
2022-09-18T17:43:21.214Z,0.17
2022-09-18T17:45:03.166Z,0.30
2022-09-18T17:46:46.320Z,0.35
2022-09-18T17:48:29.585Z,0.10
2022-09-18T17:50:11.327Z,0.40
2022-09-18T17:51:53.116Z,0.32
2022-09-18T17:53:34.864Z,0.30
2022-09-18T17:55:17.414Z,0.20
2022-09-18T17:56:59.266Z,0.20
2022-09-18T17:58:41.068Z,0.22
2022-09-18T18:00:22.890Z,0.40
2022-09-18T18:02:06.682Z,0.30
2022-09-18T18:03:48.489Z,0.30
2022-09-18T18:05:30.302Z,0.25
2022-09-18T18:07:12.176Z,0.30
2022-09-18T18:08:54.164Z,1.05
2022-09-18T18:10:36.078Z,0.30
2022-09-18T18:12:18.157Z,0.20
2022-09-18T18:15:41.575Z,0.90
2022-09-18T18:17:24.913Z,0.70
2022-09-18T18:19:08.052Z,0.30
2022-09-18T18:20:50.340Z,0.52
2022-09-18T18:22:32.158Z,0.82
2022-09-18T18:24:16.020Z,0.30
2022-09-18T18:26:00.236Z,0.20
2022-09-18T18:27:42.006Z,0.50
2022-09-18T18:29:23.767Z,0.43
2022-09-18T18:31:07.766Z,0.40
2022-09-18T18:32:50.889Z,0.50
2022-09-18T18:34:32.615Z,0.35
2022-09-18T18:36:16.936Z,0.25
2022-09-18T18:37:58.722Z,0.40
2022-09-18T18:39:40.489Z,0.20
2022-09-18T18:41:23.853Z,0.50
2022-09-18T18:43:05.698Z,0.60
2022-09-18T18:44:47.411Z,0.40
2022-09-18T18:46:30.514Z,0.43
2022-09-18T18:48:14.248Z,0.20
2022-09-18T18:49:56.017Z,0.45
2022-09-18T18:51:39.771Z,0.30
2022-09-18T18:53:21.518Z,0.15
2022-09-18T18:55:03.602Z,0.30
2022-09-18T18:58:27.214Z,0.38
2022-09-18T19:00:10.295Z,0.20
2022-09-18T19:01:55.113Z,0.30
2022-09-18T19:03:40.117Z,0.13
2022-09-18T19:05:22.101Z,0.60
2022-09-18T19:07:04.543Z,0.20
2022-09-18T19:08:46.741Z,0.40
2022-09-18T19:10:28.520Z,0.35
2022-09-18T19:12:10.246Z,0.20
2022-09-18T19:13:53.458Z,0.20
2022-09-18T19:15:38.451Z,0.40
2022-09-18T19:17:20.367Z,0.20
2022-09-18T19:19:03.587Z,0.80
2022-09-18T19:20:45.693Z,0.30
2022-09-18T19:22:27.593Z,0.98
2022-09-18T19:24:11.141Z,0.20
2022-09-18T19:25:56.769Z,0.22
2022-09-18T19:27:38.660Z,0.40
2022-09-18T19:29:21.653Z,0.50
2022-09-18T19:31:04.542Z,0.30
2022-09-18T19:32:46.381Z,0.30
2022-09-18T19:34:29.759Z,0.38
2022-09-18T19:36:11.666Z,0.60
2022-09-18T19:37:53.423Z,0.22
2022-09-18T19:39:35.364Z,0.40
2022-09-18T19:41:22.563Z,0.63
2022-09-18T19:43:07.312Z,0.28
2022-09-18T19:44:51.121Z,0.45
2022-09-18T19:46:33.029Z,0.25
2022-09-18T19:48:19.614Z,0.22
2022-09-18T19:50:04.060Z,0.70
2022-09-18T19:51:46.307Z,0.20
2022-09-18T19:53:28.060Z,0.30
2022-09-18T19:55:14.535Z,0.20
2022-09-18T19:56:56.334Z,0.82
2022-09-18T19:58:38.350Z,0.70
2022-09-18T20:00:20.388Z,0.30
2022-09-18T20:02:02.258Z,0.30
2022-09-18T20:03:44.063Z,0.38
2022-09-18T20:05:27.342Z,0.32
2022-09-18T20:07:09.730Z,0.10
2022-09-18T20:08:51.699Z,0.20
2022-09-18T20:10:34.861Z,0.20
2022-09-18T20:12:16.715Z,0.30
2022-09-18T20:13:58.474Z,0.10
2022-09-18T20:15:40.292Z,0.45
2022-09-18T20:17:22.062Z,0.50
2022-09-18T20:19:04.032Z,0.20
2022-09-18T20:20:47.242Z,0.30
2022-09-18T20:22:28.986Z,0.10
2022-09-18T20:24:10.890Z,0.30
2022-09-18T20:25:52.658Z,0.20
2022-09-18T20:27:36.429Z,0.10
2022-09-18T20:29:18.291Z,0.63
2022-09-18T20:31:02.223Z,0.20
2022-09-18T20:32:44.079Z,0.30
2022-09-18T20:34:25.927Z,0.17
2022-09-18T20:36:10.769Z,0.70
2022-09-18T20:37:52.558Z,0.95
2022-09-18T20:39:34.285Z,1.48
2022-09-18T20:41:16.057Z,1.95
2022-09-18T20:42:57.879Z,1.58
2022-09-18T20:44:39.606Z,1.25
2022-09-18T20:46:21.446Z,2.28
2022-09-18T20:48:03.216Z,2.03
2022-09-18T20:49:44.949Z,2.47
2022-09-18T20:51:30.281Z,2.42
2022-09-18T20:53:12.170Z,2.28
2022-09-18T20:54:53.900Z,2.40
2022-09-18T20:56:37.935Z,2.83
2022-09-18T20:58:19.674Z,2.17
2022-09-18T21:00:01.805Z,2.20
2022-09-18T21:03:25.696Z,1.67
2022-09-18T21:05:09.924Z,2.15
2022-09-18T21:06:54.009Z,2.67
2022-09-18T21:08:35.782Z,2.90
2022-09-18T21:10:17.660Z,2.15
2022-09-18T21:11:59.461Z,3.70
2022-09-18T21:13:42.305Z,1.88
2022-09-18T21:15:24.415Z,2.65
2022-09-18T21:18:49.443Z,1.73
2022-09-18T21:20:31.199Z,1.98
2022-09-18T21:22:14.319Z,2.67
2022-09-18T21:23:56.615Z,2.70
2022-09-18T21:25:38.405Z,2.22
2022-09-18T21:27:20.305Z,1.52
2022-09-18T21:29:03.753Z,1.75
2022-09-18T21:30:45.833Z,0.80
2022-09-18T21:34:09.986Z,0.57
2022-09-18T21:35:52.615Z,0.70
2022-09-18T21:37:36.085Z,0.45
2022-09-18T21:39:18.008Z,0.60
2022-09-18T21:41:01.620Z,0.68
2022-09-18T21:42:43.378Z,0.68
2022-09-18T21:44:27.351Z,0.38
2022-09-18T21:46:11.722Z,0.50
2022-09-18T21:47:53.549Z,0.30
2022-09-18T21:49:35.515Z,0.60
2022-09-18T21:51:17.770Z,0.70
2022-09-18T21:53:00.905Z,0.60
2022-09-18T21:54:42.773Z,0.40
2022-09-18T21:56:24.926Z,0.70
2022-09-18T21:58:06.791Z,0.90
2022-09-18T21:59:48.885Z,0.50
2022-09-18T22:03:12.612Z,0.73
2022-09-18T22:06:38.101Z,0.47
2022-09-18T22:08:21.256Z,0.40
2022-09-18T22:10:03.223Z,0.50
2022-09-18T22:11:46.232Z,1.13
2022-09-18T22:13:30.159Z,0.57
2022-09-18T22:15:11.931Z,0.40
2022-09-18T22:16:53.877Z,1.20
2022-09-18T22:18:35.709Z,0.20
2022-09-18T22:20:17.826Z,0.40
2022-09-18T22:23:43.157Z,0.63
2022-09-18T22:25:24.916Z,0.95
2022-09-18T22:27:06.690Z,0.73
2022-09-18T22:28:49.551Z,0.75
2022-09-18T22:30:31.316Z,0.65
2022-09-18T22:32:13.042Z,0.82
2022-09-18T22:33:56.687Z,0.40
2022-09-18T22:35:38.437Z,0.43
2022-09-18T22:37:20.192Z,0.70
2022-09-18T22:39:03.413Z,0.52
2022-09-18T22:40:45.128Z,0.63
2022-09-18T22:42:26.892Z,0.47
2022-09-18T22:44:09.261Z,0.50
2022-09-18T22:45:50.977Z,0.68
2022-09-18T22:47:32.703Z,0.40
2022-09-18T22:49:15.929Z,0.40
2022-09-18T22:51:04.244Z,0.63
2022-09-18T22:52:45.984Z,0.95
2022-09-18T22:54:29.108Z,0.47
2022-09-18T22:56:13.211Z,0.30
2022-09-18T22:57:55.856Z,0.50
2022-09-18T22:59:37.627Z,0.88
2022-09-18T23:01:22.874Z,0.75
2022-09-18T23:03:04.693Z,0.90
2022-09-18T23:04:46.576Z,0.50
2022-09-18T23:06:28.466Z,0.47
2022-09-18T23:08:10.247Z,0.40
2022-09-18T23:09:53.494Z,0.35
2022-09-18T23:11:36.038Z,0.45
2022-09-18T23:13:17.921Z,0.50
2022-09-18T23:14:59.668Z,0.43
2022-09-18T23:16:41.611Z,0.70
2022-09-18T23:18:23.528Z,0.40
2022-09-18T23:20:05.808Z,0.32
2022-09-18T23:21:47.682Z,0.47
2022-09-18T23:23:31.018Z,0.90
2022-09-18T23:25:14.236Z,0.30
2022-09-18T23:26:57.271Z,0.32
2022-09-18T23:28:40.857Z,0.20
2022-09-18T23:30:22.633Z,0.40
2022-09-18T23:32:04.905Z,0.30
2022-09-18T23:33:48.437Z,0.25
2022-09-18T23:35:30.210Z,0.35
2022-09-18T23:37:11.949Z,0.28
2022-09-18T23:38:54.518Z,0.50
2022-09-18T23:40:37.694Z,0.50
2022-09-18T23:42:19.516Z,1.02
2022-09-18T23:44:02.531Z,0.68
2022-09-18T23:45:44.297Z,1.48
2022-09-18T23:47:26.027Z,0.70
2022-09-18T23:49:09.150Z,0.10
2022-09-18T23:50:51.275Z,0.20
2022-09-18T23:54:16.372Z,0.20
2022-09-18T23:56:03.290Z,0.30
2022-09-18T23:57:45.012Z,0.57
2022-09-18T23:59:27.344Z,0.88
